Terminal Aerodrome Forecast
Issued by NWS

Home | Current Version | Previous Version | Text Only | Print | Product List | Glossary On
Versions: 1 2 3 4 5 6 7 8 9 10 11 12 13 14 15 16 17 18 19 20 21 22 23
000
FTUS43 KDLH 152300 RRA
TAFHIB
TAF
KHIB 152340Z 1600/1624 35016G24KT 4SM -SN BR SCT013 BKN030 OVC040
      TEMPO 1600/1602 1SM -SN BR BKN011 OVC024
     FM160600 35012KT 5SM -SN SCT008 SCT022 OVC035
     FM160800 34012KT P6SM SCT012
     FM161600 33010KT 5SM -SN BKN018 OVC030=

USA.gov is the U.S. government's official web portal to all federal, state and local government web resources and services.